createdAt,value
2018-08-12T00:01:22.703Z,99.90
2018-08-12T00:03:50.557Z,99.90
2018-08-12T00:06:18.385Z,99.90
2018-08-12T00:08:46.164Z,99.90
2018-08-12T00:11:13.969Z,99.90
2018-08-12T00:13:41.727Z,99.90
2018-08-12T00:16:09.585Z,99.90
2018-08-12T00:18:37.401Z,99.90
2018-08-12T00:21:05.422Z,99.90
2018-08-12T00:23:33.269Z,99.90
2018-08-12T00:26:01.036Z,99.90
2018-08-12T00:28:28.917Z,99.90
2018-08-12T00:30:56.722Z,99.90
2018-08-12T00:33:24.545Z,99.90
2018-08-12T00:35:52.332Z,99.90
2018-08-12T00:38:20.115Z,99.90
2018-08-12T00:40:47.941Z,99.90
2018-08-12T00:43:15.921Z,99.90
2018-08-12T00:45:43.651Z,99.90
2018-08-12T00:48:11.427Z,99.90
2018-08-12T00:50:39.217Z,99.90
2018-08-12T00:53:06.987Z,99.90
2018-08-12T00:55:34.763Z,99.90
2018-08-12T00:58:02.539Z,99.90
2018-08-12T01:00:30.373Z,99.90
2018-08-12T01:02:58.143Z,99.90
2018-08-12T01:05:26.074Z,99.90
2018-08-12T01:07:53.926Z,99.90
2018-08-12T01:10:21.665Z,99.90
2018-08-12T01:12:49.442Z,99.90
2018-08-12T01:15:21.266Z,99.90
2018-08-12T01:17:49.148Z,99.90
2018-08-12T01:20:19.621Z,99.90
2018-08-12T01:22:47.525Z,99.90
2018-08-12T01:25:15.333Z,99.90
2018-08-12T01:27:43.295Z,99.90
2018-08-12T01:30:13.597Z,99.90
2018-08-12T01:32:41.896Z,99.90
2018-08-12T01:35:10.723Z,99.90
2018-08-12T01:37:38.788Z,99.90
2018-08-12T01:40:08.705Z,99.90
2018-08-12T01:42:36.818Z,99.90
2018-08-12T01:45:04.939Z,99.90
2018-08-12T01:47:32.869Z,99.90
2018-08-12T01:50:00.761Z,99.90
2018-08-12T01:52:29.011Z,99.90
2018-08-12T01:54:56.895Z,99.90
2018-08-12T01:57:24.675Z,99.90
2018-08-12T01:59:52.415Z,99.90
2018-08-12T02:02:20.253Z,99.90
2018-08-12T02:04:48.022Z,99.90
2018-08-12T02:07:15.835Z,99.90
2018-08-12T02:09:43.612Z,99.90
2018-08-12T02:12:11.401Z,99.90
2018-08-12T02:14:39.164Z,99.90
2018-08-12T02:17:07.232Z,99.90
2018-08-12T02:19:34.943Z,99.90
2018-08-12T02:22:02.723Z,99.90
2018-08-12T02:24:30.449Z,99.90
2018-08-12T02:26:58.271Z,99.90
2018-08-12T02:29:25.994Z,99.90
2018-08-12T02:31:53.705Z,99.90
2018-08-12T02:34:21.463Z,99.90
2018-08-12T02:36:49.215Z,99.90
2018-08-12T02:39:16.952Z,99.90
2018-08-12T02:41:44.803Z,99.90
2018-08-12T02:44:12.523Z,99.90
2018-08-12T02:46:40.321Z,99.90
2018-08-12T02:49:08.121Z,99.90
2018-08-12T02:51:35.888Z,99.90
2018-08-12T02:54:03.736Z,99.90
2018-08-12T02:56:31.483Z,99.90
2018-08-12T02:58:59.234Z,99.90
2018-08-12T03:01:27.008Z,99.90
2018-08-12T03:03:54.789Z,99.90
2018-08-12T03:06:22.513Z,99.90
2018-08-12T03:08:50.298Z,99.90
2018-08-12T03:11:18.044Z,99.90
2018-08-12T03:13:45.812Z,99.90
2018-08-12T03:16:13.542Z,99.90
2018-08-12T03:18:41.337Z,99.90
2018-08-12T03:21:09.158Z,99.90
2018-08-12T03:23:36.945Z,99.90
2018-08-12T03:26:04.811Z,99.90
2018-08-12T03:28:32.544Z,99.90
2018-08-12T03:31:00.355Z,99.90
2018-08-12T03:33:28.059Z,99.90
2018-08-12T03:35:55.829Z,99.90
2018-08-12T03:38:23.555Z,99.90
2018-08-12T03:40:51.366Z,99.90
2018-08-12T03:43:19.145Z,99.90
2018-08-12T03:45:46.991Z,99.90
2018-08-12T03:48:14.771Z,99.90
2018-08-12T03:50:42.568Z,99.90
2018-08-12T03:53:10.344Z,99.90
2018-08-12T03:55:38.077Z,99.90
2018-08-12T03:58:05.837Z,99.90
2018-08-12T04:00:33.654Z,99.90
2018-08-12T04:03:01.446Z,99.90
2018-08-12T04:05:29.240Z,99.90
2018-08-12T04:07:56.964Z,99.90
2018-08-12T04:10:24.703Z,99.90
2018-08-12T04:12:52.458Z,99.90
2018-08-12T04:15:20.184Z,99.90
2018-08-12T04:17:48.004Z,99.90
2018-08-12T04:20:15.785Z,99.90
2018-08-12T04:22:43.525Z,99.90
2018-08-12T04:25:11.295Z,99.90
2018-08-12T04:27:39.068Z,99.90
2018-08-12T04:30:08.141Z,99.90
2018-08-12T04:32:35.919Z,99.90
2018-08-12T04:35:04.303Z,99.90
2018-08-12T04:37:32.036Z,99.90
2018-08-12T04:39:59.805Z,99.90
2018-08-12T04:42:27.585Z,99.90
2018-08-12T04:44:55.343Z,99.90
2018-08-12T04:47:23.091Z,99.90
2018-08-12T04:49:50.914Z,99.90
2018-08-12T04:52:18.730Z,99.90
2018-08-12T04:54:46.441Z,99.90
2018-08-12T04:57:14.213Z,99.90
2018-08-12T04:59:41.975Z,99.90
2018-08-12T05:02:09.707Z,99.90
2018-08-12T05:04:37.405Z,99.90
2018-08-12T05:07:05.564Z,99.90
2018-08-12T05:09:33.301Z,99.90
2018-08-12T05:12:01.025Z,99.90
2018-08-12T05:14:28.798Z,99.90
2018-08-12T05:16:56.572Z,99.90
2018-08-12T05:19:24.415Z,99.90
2018-08-12T05:21:52.151Z,99.90
2018-08-12T05:24:19.929Z,99.90
2018-08-12T05:26:47.681Z,99.90
2018-08-12T05:29:15.461Z,99.90
2018-08-12T05:31:43.273Z,99.90
2018-08-12T05:34:11.043Z,99.90
2018-08-12T05:36:38.956Z,99.90
2018-08-12T05:39:09.324Z,99.90
2018-08-12T05:41:37.089Z,99.90
2018-08-12T05:44:05.057Z,99.90
2018-08-12T05:46:32.859Z,99.90
2018-08-12T05:49:00.588Z,99.90
2018-08-12T05:51:28.453Z,99.90
2018-08-12T05:53:56.161Z,99.90
2018-08-12T05:56:23.955Z,99.90
2018-08-12T05:58:51.757Z,99.90
2018-08-12T06:01:19.528Z,99.90
2018-08-12T06:03:47.503Z,99.90
2018-08-12T06:06:15.335Z,99.90
2018-08-12T06:08:43.100Z,99.90
2018-08-12T06:11:10.860Z,99.90
2018-08-12T06:13:38.611Z,99.90
2018-08-12T06:16:06.501Z,99.90
2018-08-12T06:18:34.351Z,99.90
2018-08-12T06:21:02.204Z,99.90
2018-08-12T06:23:30.069Z,99.90
2018-08-12T06:25:57.812Z,99.90
2018-08-12T06:28:25.581Z,99.90
2018-08-12T06:30:53.379Z,99.90
2018-08-12T06:33:21.198Z,99.90
2018-08-12T06:35:48.929Z,99.90
2018-08-12T06:38:16.722Z,99.90
2018-08-12T06:40:44.488Z,99.90
2018-08-12T06:43:12.242Z,99.90
2018-08-12T06:45:40.087Z,99.90
2018-08-12T06:48:07.837Z,99.90
2018-08-12T06:50:35.674Z,99.90
2018-08-12T06:53:03.498Z,99.90
2018-08-12T06:55:31.258Z,99.90
2018-08-12T06:57:59.031Z,99.90
2018-08-12T07:00:26.777Z,99.90
2018-08-12T07:02:54.527Z,99.90
2018-08-12T07:05:22.357Z,99.90
2018-08-12T07:07:50.079Z,99.20
2018-08-12T07:10:17.948Z,99.90
2018-08-12T07:12:45.641Z,98.90
2018-08-12T07:15:17.775Z,98.50
2018-08-12T07:17:46.283Z,97.30
2018-08-12T07:20:14.549Z,96.00
2018-08-12T07:22:42.436Z,96.20
2018-08-12T07:25:11.540Z,95.80
2018-08-12T07:27:40.327Z,95.50
2018-08-12T07:30:09.937Z,94.20
2018-08-12T07:32:37.720Z,93.80
2018-08-12T07:35:06.149Z,94.40
2018-08-12T07:37:33.883Z,92.80
2018-08-12T07:40:01.755Z,92.80
2018-08-12T07:42:29.577Z,92.40
2018-08-12T07:44:57.378Z,91.80
2018-08-12T07:47:25.162Z,91.20
2018-08-12T07:49:52.935Z,91.40
2018-08-12T07:52:20.740Z,90.90
2018-08-12T07:54:48.459Z,89.20
2018-08-12T07:57:16.305Z,90.00
2018-08-12T07:59:44.247Z,87.30
2018-08-12T08:02:12.117Z,86.00
2018-08-12T08:04:39.913Z,84.20
2018-08-12T08:07:07.655Z,85.10
2018-08-12T08:09:35.451Z,83.80
2018-08-12T08:12:03.405Z,81.70
2018-08-12T08:14:31.473Z,81.50
2018-08-12T08:16:59.340Z,79.20
2018-08-12T08:19:27.195Z,76.80
2018-08-12T08:21:54.985Z,76.20
2018-08-12T08:24:22.759Z,73.80
2018-08-12T08:26:50.515Z,75.30
2018-08-12T08:29:18.299Z,70.80
2018-08-12T08:31:46.204Z,69.70
2018-08-12T08:34:13.896Z,69.70
2018-08-12T08:36:41.667Z,69.90
2018-08-12T08:39:11.933Z,67.70
2018-08-12T08:41:39.744Z,66.90
2018-08-12T08:44:07.713Z,66.50
2018-08-12T08:46:35.499Z,64.10
2018-08-12T08:49:03.364Z,63.30
2018-08-12T08:51:31.303Z,62.60
2018-08-12T08:53:59.645Z,63.00
2018-08-12T08:56:27.439Z,62.10
2018-08-12T08:58:55.297Z,61.30
2018-08-12T09:01:23.165Z,59.70
2018-08-12T09:03:50.893Z,61.20
2018-08-12T09:06:18.641Z,57.70
2018-08-12T09:08:47.476Z,56.70
2018-08-12T09:11:15.041Z,56.30
2018-08-12T09:13:42.743Z,54.80
2018-08-12T09:16:10.505Z,54.40
2018-08-12T09:18:38.220Z,55.40
2018-08-12T09:21:06.032Z,53.10
2018-08-12T09:23:33.799Z,52.40
2018-08-12T09:26:01.542Z,53.00
2018-08-12T09:28:29.297Z,51.30
2018-08-12T09:30:57.047Z,51.40
2018-08-12T09:33:24.756Z,51.20
2018-08-12T09:35:52.442Z,51.20
2018-08-12T09:38:20.179Z,50.70
2018-08-12T09:40:47.943Z,50.00
2018-08-12T09:43:15.649Z,49.50
2018-08-12T09:45:43.377Z,49.10
2018-08-12T09:48:11.104Z,49.30
2018-08-12T09:50:38.997Z,47.50
2018-08-12T09:53:06.807Z,47.80
2018-08-12T09:55:34.604Z,47.00
2018-08-12T09:58:02.556Z,47.60
2018-08-12T10:00:35.871Z,47.40
2018-08-12T10:03:03.966Z,45.70
2018-08-12T10:05:31.767Z,45.70
2018-08-12T10:07:59.612Z,45.40
2018-08-12T10:10:27.364Z,44.00
2018-08-12T10:12:55.177Z,45.00
2018-08-12T10:15:22.950Z,44.10
2018-08-12T10:17:52.815Z,44.10
2018-08-12T10:20:20.654Z,44.60
2018-08-12T10:22:48.483Z,43.70
2018-08-12T10:25:16.290Z,43.80
2018-08-12T10:27:44.457Z,43.30
2018-08-12T10:30:13.268Z,43.20
2018-08-12T10:32:41.046Z,42.80
2018-08-12T10:35:10.545Z,42.90
2018-08-12T10:37:38.330Z,42.90
2018-08-12T10:40:08.863Z,42.40
2018-08-12T10:42:36.644Z,43.70
2018-08-12T10:45:06.242Z,42.90
2018-08-12T10:47:34.038Z,41.20
2018-08-12T10:50:01.814Z,42.20
2018-08-12T10:52:29.548Z,40.80
2018-08-12T10:54:57.485Z,43.20
2018-08-12T10:57:25.384Z,41.30
2018-08-12T11:09:35.489Z,36.60
2018-08-12T11:12:03.291Z,36.90
2018-08-12T11:14:31.065Z,34.50
2018-08-12T11:16:58.797Z,36.10
2018-08-12T11:19:26.569Z,35.20
2018-08-12T11:21:54.312Z,35.50
2018-08-12T11:24:22.069Z,34.70
2018-08-12T11:26:49.843Z,35.00
2018-08-12T11:29:17.647Z,34.70
2018-08-12T11:31:45.417Z,33.90
2018-08-12T11:34:13.180Z,35.10
2018-08-12T11:36:41.055Z,35.70
2018-08-12T11:39:10.408Z,35.10
2018-08-12T11:41:38.169Z,34.70
2018-08-12T11:44:06.083Z,35.80
2018-08-12T11:46:33.831Z,34.90
2018-08-12T11:49:01.614Z,35.00
2018-08-12T11:51:29.523Z,33.90
2018-08-12T11:53:57.381Z,34.30
2018-08-12T11:56:25.340Z,33.70
2018-08-12T11:58:53.173Z,33.40
2018-08-12T12:01:20.899Z,33.30
2018-08-12T12:03:48.712Z,33.80
2018-08-12T12:06:16.535Z,33.50
2018-08-12T12:08:44.325Z,34.30
2018-08-12T12:11:12.076Z,34.40
2018-08-12T12:13:39.855Z,33.80
2018-08-12T12:16:07.596Z,33.60
2018-08-12T12:18:35.366Z,33.70
2018-08-12T12:21:03.158Z,33.30
2018-08-12T12:23:30.904Z,33.90
2018-08-12T12:25:58.694Z,34.10
2018-08-12T12:28:26.459Z,34.70
2018-08-12T12:30:54.225Z,34.50
2018-08-12T12:33:21.979Z,34.90
2018-08-12T12:35:49.759Z,35.00
2018-08-12T12:38:17.475Z,34.30
2018-08-12T12:40:45.312Z,34.80
2018-08-12T12:43:13.041Z,34.60
2018-08-12T12:45:40.827Z,34.40
2018-08-12T12:48:08.589Z,34.30
2018-08-12T12:50:36.333Z,34.30
2018-08-12T12:53:04.157Z,34.80
2018-08-12T12:55:31.904Z,35.40
2018-08-12T12:57:59.655Z,35.50
2018-08-12T13:00:27.456Z,36.10
2018-08-12T13:02:55.193Z,35.00
2018-08-12T13:05:23.008Z,35.90
2018-08-12T13:07:51.329Z,36.00
2018-08-12T13:10:19.628Z,35.30
2018-08-12T13:12:47.420Z,34.50
2018-08-12T13:15:16.111Z,35.60
2018-08-12T13:17:43.916Z,35.30
2018-08-12T13:20:15.061Z,34.90
2018-08-12T13:22:44.094Z,35.80
2018-08-12T13:25:13.668Z,35.50
2018-08-12T13:27:42.200Z,35.60
2018-08-12T13:30:11.362Z,36.00
2018-08-12T13:32:39.637Z,35.50
2018-08-12T13:35:07.762Z,35.60
2018-08-12T13:37:36.150Z,35.50
2018-08-12T13:40:05.465Z,35.10
2018-08-12T13:42:33.233Z,35.30
2018-08-12T13:45:01.030Z,36.70
2018-08-12T13:47:28.858Z,36.10
2018-08-12T13:49:56.610Z,35.70
2018-08-12T13:52:24.409Z,35.50
2018-08-12T13:54:52.172Z,35.80
2018-08-12T13:57:19.960Z,36.10
2018-08-12T13:59:47.884Z,35.60
2018-08-12T14:02:15.697Z,36.10
2018-08-12T14:04:43.480Z,36.50
2018-08-12T14:07:11.307Z,35.50
2018-08-12T14:09:39.040Z,34.20
2018-08-12T14:12:06.862Z,34.00
2018-08-12T14:14:34.680Z,35.30
2018-08-12T14:17:02.468Z,35.10
2018-08-12T14:19:30.219Z,34.60
2018-08-12T14:21:58.109Z,34.50
2018-08-12T14:24:25.861Z,35.30
2018-08-12T14:26:53.623Z,34.20
2018-08-12T14:29:21.460Z,34.60
2018-08-12T14:31:49.246Z,34.50
2018-08-12T14:34:17.072Z,34.10
2018-08-12T14:36:44.886Z,34.20
2018-08-12T14:39:12.653Z,34.30
2018-08-12T14:41:40.458Z,34.30
2018-08-12T14:44:08.248Z,34.80
2018-08-12T14:46:36.331Z,34.40
2018-08-12T14:49:04.179Z,33.80
2018-08-12T14:51:32.000Z,34.50
2018-08-12T14:53:59.735Z,34.40
2018-08-12T14:56:27.473Z,35.30
2018-08-12T14:58:55.238Z,34.90
2018-08-12T15:01:23.077Z,34.30
2018-08-12T15:03:50.964Z,33.60
2018-08-12T15:06:18.893Z,34.20
2018-08-12T15:08:46.575Z,33.80
2018-08-12T15:11:14.416Z,34.50
2018-08-12T15:13:42.210Z,35.10
2018-08-12T15:16:09.986Z,34.70
2018-08-12T15:18:37.735Z,35.20
2018-08-12T15:21:05.461Z,35.60
2018-08-12T15:23:33.326Z,35.70
2018-08-12T15:26:01.261Z,35.80
2018-08-12T15:28:29.099Z,35.60
2018-08-12T15:30:56.938Z,35.10
2018-08-12T15:33:24.864Z,35.20
2018-08-12T15:35:52.927Z,34.40
2018-08-12T15:38:20.871Z,35.20
2018-08-12T15:40:48.865Z,35.00
2018-08-12T15:43:16.815Z,35.50
2018-08-12T15:45:44.701Z,35.90
2018-08-12T15:48:12.553Z,36.70
2018-08-12T15:50:40.551Z,36.30
2018-08-12T15:53:08.431Z,36.60
2018-08-12T15:55:36.303Z,36.10
2018-08-12T15:58:04.096Z,36.10
2018-08-12T16:00:31.802Z,35.80
2018-08-12T16:02:59.515Z,35.40
2018-08-12T16:05:27.245Z,35.90
2018-08-12T16:07:54.976Z,36.10
2018-08-12T16:10:23.462Z,36.50
2018-08-12T16:12:52.522Z,37.10
2018-08-12T16:15:20.632Z,37.40
2018-08-12T16:17:48.394Z,38.10
2018-08-12T16:20:16.171Z,38.10
2018-08-12T16:22:44.089Z,38.50
2018-08-12T16:25:14.609Z,38.90
2018-08-12T16:27:42.865Z,39.10
2018-08-12T16:30:11.892Z,38.80
2018-08-12T16:32:39.643Z,39.10
2018-08-12T16:35:09.024Z,39.70
2018-08-12T16:37:36.802Z,39.50
2018-08-12T16:40:06.196Z,39.40
2018-08-12T16:42:34.039Z,39.70
2018-08-12T16:45:01.841Z,39.60
2018-08-12T16:47:29.572Z,39.30
2018-08-12T16:49:57.371Z,40.00
2018-08-12T16:52:25.122Z,38.70
2018-08-12T16:54:53.004Z,38.60
2018-08-12T16:57:20.752Z,39.00
2018-08-12T16:59:48.467Z,39.20
2018-08-12T17:02:16.173Z,38.70
2018-08-12T17:04:43.921Z,40.00
2018-08-12T17:07:11.752Z,39.50
2018-08-12T17:09:39.487Z,40.30
2018-08-12T17:12:07.231Z,40.10
2018-08-12T17:14:34.969Z,40.10
2018-08-12T17:17:02.738Z,40.80
2018-08-12T17:19:30.445Z,40.60
2018-08-12T17:21:58.189Z,41.50
2018-08-12T17:24:25.940Z,42.00
2018-08-12T17:26:53.711Z,41.60
2018-08-12T17:29:21.424Z,42.20
2018-08-12T17:31:49.126Z,42.50
2018-08-12T17:34:16.807Z,42.40
2018-08-12T17:36:44.545Z,43.00
2018-08-12T17:39:12.313Z,43.30
2018-08-12T17:41:40.079Z,43.60
2018-08-12T17:44:07.986Z,44.20
2018-08-12T17:46:35.703Z,44.00
2018-08-12T17:49:03.477Z,44.70
2018-08-12T17:51:31.205Z,45.10
2018-08-12T17:53:59.569Z,45.90
2018-08-12T17:56:27.541Z,46.20
2018-08-12T17:58:55.433Z,46.60
2018-08-12T18:01:23.251Z,46.60
2018-08-12T18:03:51.075Z,48.50
2018-08-12T18:06:18.874Z,47.70
2018-08-12T18:08:46.601Z,48.70
2018-08-12T18:11:14.313Z,48.10
2018-08-12T18:13:42.040Z,49.40
2018-08-12T18:16:10.021Z,50.00
2018-08-12T18:18:37.751Z,49.70
2018-08-12T18:21:05.485Z,49.30
2018-08-12T18:23:33.364Z,49.20
2018-08-12T18:26:01.125Z,49.50
2018-08-12T18:28:28.869Z,50.00
2018-08-12T18:30:56.579Z,50.20
2018-08-12T18:33:24.401Z,50.10
2018-08-12T18:35:52.173Z,50.60
2018-08-12T18:38:19.993Z,50.00
2018-08-12T18:40:47.751Z,49.60
2018-08-12T18:43:15.602Z,50.60
2018-08-12T18:45:43.308Z,49.70
2018-08-12T18:48:11.088Z,50.00
2018-08-12T18:50:38.828Z,50.30
2018-08-12T18:53:06.613Z,50.80
2018-08-12T18:55:34.389Z,50.30
2018-08-12T18:58:02.145Z,50.40
2018-08-12T19:00:29.953Z,51.00
2018-08-12T19:02:57.725Z,51.30
2018-08-12T19:05:25.646Z,51.60
2018-08-12T19:07:53.396Z,52.40
2018-08-12T19:10:21.112Z,52.70
2018-08-12T19:12:48.873Z,53.80
2018-08-12T19:15:16.604Z,55.30
2018-08-12T19:17:44.392Z,56.40
2018-08-12T19:20:12.184Z,56.90
2018-08-12T19:22:40.049Z,56.70
2018-08-12T19:25:08.497Z,57.20
2018-08-12T19:27:36.644Z,58.30
2018-08-12T19:30:06.572Z,57.50
2018-08-12T19:32:34.398Z,58.50
2018-08-12T19:35:02.168Z,58.70
2018-08-12T19:37:30.000Z,59.00
2018-08-12T19:39:57.757Z,59.40
2018-08-12T19:42:25.487Z,59.10
2018-08-12T19:44:53.561Z,59.10
2018-08-12T19:47:21.363Z,59.20
2018-08-12T19:49:49.132Z,59.80
2018-08-12T19:52:16.904Z,59.90
2018-08-12T19:54:44.756Z,59.70
2018-08-12T19:57:12.943Z,60.60
2018-08-12T19:59:40.735Z,61.00
2018-08-12T20:02:08.734Z,61.40
2018-08-12T20:04:36.741Z,61.60
2018-08-12T20:07:04.979Z,62.00
2018-08-12T20:09:32.801Z,62.00
2018-08-12T20:12:00.690Z,62.10
2018-08-12T20:14:28.657Z,62.30
2018-08-12T20:16:56.555Z,61.50
2018-08-12T20:19:24.530Z,62.50
2018-08-12T20:21:53.271Z,63.20
2018-08-12T20:24:21.260Z,64.00
2018-08-12T20:26:49.205Z,64.20
2018-08-12T20:29:16.975Z,62.80
2018-08-12T20:31:44.836Z,64.60
2018-08-12T20:34:12.634Z,65.30
2018-08-12T20:36:40.398Z,66.40
2018-08-12T20:39:10.265Z,68.20
2018-08-12T20:41:38.043Z,70.30
2018-08-12T20:44:05.799Z,71.50
2018-08-12T20:46:33.664Z,71.60
2018-08-12T20:49:01.427Z,73.00
2018-08-12T20:51:29.140Z,73.70
2018-08-12T20:53:56.996Z,73.20
2018-08-12T20:56:24.791Z,74.00
2018-08-12T20:58:52.533Z,73.90
2018-08-12T21:01:20.352Z,74.50
2018-08-12T21:03:48.168Z,74.20
2018-08-12T21:06:15.895Z,74.70
2018-08-12T21:08:43.664Z,74.30
2018-08-12T21:11:11.400Z,72.80
2018-08-12T21:13:39.148Z,73.60
2018-08-12T21:16:06.942Z,74.90
2018-08-12T21:18:34.734Z,74.80
2018-08-12T21:21:02.519Z,74.40
2018-08-12T21:23:30.262Z,76.90
2018-08-12T21:25:58.140Z,77.60
2018-08-12T21:28:25.868Z,78.40
2018-08-12T21:30:53.641Z,76.80
2018-08-12T21:33:21.408Z,79.20
2018-08-12T21:35:49.168Z,79.20
2018-08-12T21:38:16.978Z,80.30
2018-08-12T21:40:44.752Z,82.40
2018-08-12T21:43:12.565Z,84.90
2018-08-12T21:45:40.297Z,86.40
2018-08-12T21:48:08.161Z,86.20
2018-08-12T21:50:35.917Z,87.40
2018-08-12T21:53:03.802Z,86.00
2018-08-12T21:55:31.727Z,87.50
2018-08-12T21:57:59.583Z,85.80
2018-08-12T22:00:27.319Z,87.80
2018-08-12T22:02:55.783Z,85.90
2018-08-12T22:05:24.733Z,87.50
2018-08-12T22:07:52.550Z,86.80
2018-08-12T22:10:20.335Z,86.70
2018-08-12T22:12:48.073Z,87.70
2018-08-12T22:15:15.913Z,87.50
2018-08-12T22:17:43.805Z,88.20
2018-08-12T22:20:11.695Z,89.10
2018-08-12T22:22:39.482Z,89.40
2018-08-12T22:25:07.360Z,90.70
2018-08-12T22:27:35.122Z,88.90
2018-08-12T22:30:03.081Z,90.00
2018-08-12T22:32:30.902Z,91.60
2018-08-12T22:34:58.726Z,92.10
2018-08-12T22:37:26.539Z,93.10
2018-08-12T22:39:54.387Z,91.60
2018-08-12T22:42:22.195Z,92.10
2018-08-12T22:44:49.948Z,95.00
2018-08-12T22:47:17.731Z,98.20
2018-08-12T22:49:45.480Z,98.80
2018-08-12T22:52:13.276Z,98.70
2018-08-12T22:54:41.111Z,98.10
2018-08-12T22:57:08.868Z,99.40
2018-08-12T22:59:36.675Z,99.80
2018-08-12T23:02:05.084Z,97.70
2018-08-12T23:04:32.914Z,93.70
2018-08-12T23:07:00.814Z,93.50
2018-08-12T23:09:28.598Z,92.60
2018-08-12T23:11:56.377Z,94.00
2018-08-12T23:14:24.199Z,92.20
2018-08-12T23:16:58.097Z,91.80
2018-08-12T23:19:25.985Z,92.90
2018-08-12T23:21:54.400Z,92.70
2018-08-12T23:24:22.280Z,93.80
2018-08-12T23:26:50.118Z,93.30
2018-08-12T23:29:17.883Z,94.30
2018-08-12T23:31:45.718Z,94.40
2018-08-12T23:34:13.624Z,94.50
2018-08-12T23:36:41.419Z,94.60
2018-08-12T23:39:10.449Z,94.50
2018-08-12T23:41:38.237Z,94.80
2018-08-12T23:44:06.795Z,96.40
2018-08-12T23:46:34.562Z,96.50
2018-08-12T23:49:02.413Z,96.20
2018-08-12T23:51:30.237Z,98.10
2018-08-12T23:53:57.996Z,99.90
2018-08-12T23:56:26.589Z,97.80
2018-08-12T23:58:54.351Z,99.60
